createdAt,value
2022-10-02T00:02:16.860Z,0.40
2022-10-02T00:04:55.569Z,0.38
2022-10-02T00:07:33.547Z,0.75
2022-10-02T00:10:09.697Z,0.63
2022-10-02T00:12:41.134Z,0.65
2022-10-02T00:15:22.173Z,0.73
2022-10-02T00:17:59.017Z,0.65
2022-10-02T00:23:11.359Z,1.20
2022-10-02T00:25:47.310Z,1.05
2022-10-02T00:28:30.673Z,0.90
2022-10-02T00:31:18.536Z,1.00
2022-10-02T00:34:03.471Z,1.27
2022-10-02T00:36:47.396Z,1.23
2022-10-02T00:39:29.977Z,2.00
2022-10-02T00:42:26.680Z,0.95
2022-10-02T00:45:23.322Z,1.70
2022-10-02T00:48:04.410Z,1.20
2022-10-02T00:50:44.969Z,1.63
2022-10-02T00:53:30.181Z,1.40
2022-10-02T00:56:11.027Z,1.30
2022-10-02T00:59:11.995Z,1.15
2022-10-02T01:01:49.494Z,1.48
2022-10-02T01:04:28.753Z,1.40
2022-10-02T01:07:02.607Z,1.42
2022-10-02T01:09:34.115Z,1.92
2022-10-02T01:12:05.542Z,1.55
2022-10-02T01:14:37.420Z,0.98
2022-10-02T01:17:10.744Z,1.88
2022-10-02T01:19:43.476Z,1.70
2022-10-02T01:22:22.095Z,1.40
2022-10-02T01:24:56.276Z,1.35
2022-10-02T01:27:29.455Z,2.08
2022-10-02T01:30:04.955Z,1.60
2022-10-02T01:32:36.703Z,1.45
2022-10-02T01:35:09.255Z,2.17
2022-10-02T01:37:44.339Z,1.88
2022-10-02T01:40:28.172Z,2.25
2022-10-02T01:43:01.806Z,1.17
2022-10-02T01:45:47.349Z,1.65
2022-10-02T01:48:24.956Z,1.38
2022-10-02T01:51:04.882Z,1.50
2022-10-02T01:53:42.336Z,1.00
2022-10-02T01:56:21.961Z,1.55
2022-10-02T01:59:04.285Z,1.30
2022-10-02T02:01:47.576Z,1.40
2022-10-02T02:04:25.852Z,1.90
2022-10-02T02:07:04.411Z,1.20
2022-10-02T02:09:41.079Z,1.60
2022-10-02T02:12:18.229Z,1.42
2022-10-02T02:14:54.534Z,3.13
2022-10-02T02:17:31.489Z,1.92
2022-10-02T02:20:06.135Z,2.58
2022-10-02T02:22:43.536Z,2.22
2022-10-02T02:25:20.260Z,2.50
2022-10-02T02:27:56.536Z,2.13
2022-10-02T02:30:28.536Z,2.15
2022-10-02T02:33:04.279Z,2.50
2022-10-02T02:35:39.272Z,2.33
2022-10-02T02:38:14.515Z,3.40
2022-10-02T02:40:48.608Z,2.08
2022-10-02T02:43:27.921Z,2.63
2022-10-02T02:46:01.382Z,3.17
2022-10-02T02:48:37.040Z,3.30
2022-10-02T02:51:16.072Z,2.75
2022-10-02T02:53:52.563Z,3.13
2022-10-02T02:56:25.029Z,2.47
2022-10-02T02:59:03.245Z,2.58
2022-10-02T03:01:34.185Z,2.88
2022-10-02T03:04:05.484Z,3.25
2022-10-02T03:06:39.441Z,2.53
2022-10-02T03:09:14.889Z,2.15
2022-10-02T03:11:55.874Z,3.80
2022-10-02T03:15:02.759Z,2.80
2022-10-02T03:17:49.317Z,4.57
2022-10-02T03:20:29.904Z,3.47
2022-10-02T03:23:10.056Z,2.85
2022-10-02T03:25:46.350Z,2.72
2022-10-02T03:28:43.490Z,3.25
2022-10-02T03:31:18.053Z,3.53
2022-10-02T03:33:49.797Z,3.83
2022-10-02T03:36:21.344Z,3.22
2022-10-02T03:39:12.631Z,3.95
2022-10-02T03:41:44.261Z,3.10
2022-10-02T03:44:15.365Z,2.55
2022-10-02T03:46:49.159Z,2.90
2022-10-02T03:49:19.943Z,3.55
2022-10-02T03:51:50.744Z,3.47
2022-10-02T03:54:23.677Z,4.60
2022-10-02T03:56:59.601Z,4.00
2022-10-02T03:59:46.050Z,4.05
2022-10-02T04:02:28.088Z,3.00
2022-10-02T04:05:04.971Z,3.70
2022-10-02T04:10:27.412Z,2.70
2022-10-02T04:13:05.833Z,2.83
2022-10-02T04:15:47.069Z,3.03
2022-10-02T04:18:26.009Z,2.65
2022-10-02T04:21:01.654Z,2.78
2022-10-02T04:23:36.383Z,3.10
2022-10-02T04:26:10.950Z,3.13
2022-10-02T04:28:45.763Z,2.75
2022-10-02T04:31:17.336Z,2.50
2022-10-02T04:33:50.753Z,2.15
2022-10-02T04:36:37.265Z,2.58
2022-10-02T04:39:27.257Z,2.80
2022-10-02T04:42:19.528Z,2.53
2022-10-02T04:45:07.495Z,3.13
2022-10-02T04:47:55.121Z,2.28
2022-10-02T04:50:41.301Z,2.30
2022-10-02T04:53:35.550Z,2.08
2022-10-02T04:56:27.483Z,1.65
2022-10-02T04:59:30.449Z,1.92
2022-10-02T05:02:11.150Z,1.70
2022-10-02T05:04:54.173Z,1.80
2022-10-02T05:07:52.582Z,1.40
2022-10-02T05:10:40.375Z,1.27
2022-10-02T05:13:25.447Z,1.77
2022-10-02T05:16:11.756Z,1.23
2022-10-02T05:19:03.904Z,1.85
2022-10-02T05:22:00.378Z,1.55
2022-10-02T05:24:57.158Z,1.60
2022-10-02T05:27:48.113Z,1.40
2022-10-02T05:30:20.688Z,1.48
2022-10-02T05:33:28.507Z,2.10
2022-10-02T05:36:17.434Z,1.75
2022-10-02T05:39:07.563Z,1.50
2022-10-02T05:41:50.659Z,1.33
2022-10-02T05:44:25.838Z,1.20
2022-10-02T05:47:03.793Z,1.45
2022-10-02T05:49:40.958Z,1.88
2022-10-02T05:52:18.259Z,1.60
2022-10-02T05:54:55.971Z,2.00
2022-10-02T05:57:35.831Z,1.80
2022-10-02T06:00:16.606Z,1.50
2022-10-02T06:02:53.194Z,2.22
2022-10-02T06:05:29.081Z,2.30
2022-10-02T06:08:05.169Z,1.70
2022-10-02T06:10:41.226Z,1.40
2022-10-02T06:13:21.663Z,1.85
2022-10-02T06:15:55.586Z,2.00
2022-10-02T06:18:32.014Z,2.17
2022-10-02T06:21:09.373Z,1.63
2022-10-02T06:23:46.572Z,1.92
2022-10-02T06:26:27.845Z,1.80
2022-10-02T06:29:05.419Z,1.50
2022-10-02T06:31:42.217Z,1.73
2022-10-02T06:34:15.894Z,1.77
2022-10-02T06:37:14.779Z,1.60
2022-10-02T06:40:12.159Z,1.60
2022-10-02T06:42:52.970Z,2.40
2022-10-02T06:45:36.277Z,1.42
2022-10-02T06:48:13.021Z,1.33
2022-10-02T06:50:48.280Z,1.55
2022-10-02T06:53:35.787Z,1.33
2022-10-02T06:58:55.803Z,1.30
2022-10-02T07:01:43.047Z,2.10
2022-10-02T07:04:30.436Z,1.90
2022-10-02T07:07:10.374Z,1.65
2022-10-02T07:09:55.209Z,1.40
2022-10-02T07:12:47.289Z,1.25
2022-10-02T07:15:43.606Z,1.40
2022-10-02T07:18:26.141Z,1.80
2022-10-02T07:21:09.047Z,1.48
2022-10-02T07:23:50.819Z,1.23
2022-10-02T07:26:45.976Z,1.48
2022-10-02T07:29:35.477Z,1.45
2022-10-02T07:32:34.389Z,1.38
2022-10-02T07:35:19.868Z,1.48
2022-10-02T07:38:00.460Z,1.00
2022-10-02T07:40:42.265Z,1.50
2022-10-02T07:43:29.569Z,1.25
2022-10-02T07:46:10.706Z,1.60
2022-10-02T07:48:52.531Z,1.40
2022-10-02T07:51:51.008Z,1.80
2022-10-02T07:55:01.751Z,2.17
2022-10-02T07:57:41.143Z,1.95
2022-10-02T08:00:18.011Z,1.55
2022-10-02T08:05:27.590Z,2.38
2022-10-02T08:08:05.634Z,1.63
2022-10-02T08:10:41.318Z,1.67
2022-10-02T08:13:20.828Z,1.75
2022-10-02T08:15:55.769Z,1.90
2022-10-02T08:18:35.396Z,1.90
2022-10-02T08:21:14.693Z,1.25
2022-10-02T08:23:52.775Z,1.70
2022-10-02T08:26:35.362Z,1.80
2022-10-02T08:29:13.091Z,1.50
2022-10-02T08:31:43.964Z,1.65
2022-10-02T08:34:21.302Z,1.60
2022-10-02T08:37:16.874Z,2.05
2022-10-02T08:40:25.406Z,1.90
2022-10-02T08:43:34.326Z,1.83
2022-10-02T08:46:37.849Z,1.60
2022-10-02T08:49:38.624Z,1.73
2022-10-02T08:52:39.321Z,1.50
2022-10-02T08:55:44.571Z,1.50
2022-10-02T08:59:01.443Z,1.33
2022-10-02T09:02:19.574Z,2.25
2022-10-02T09:05:23.734Z,1.43
2022-10-02T09:08:15.051Z,1.98
2022-10-02T09:11:09.772Z,1.45
2022-10-02T09:14:26.448Z,2.08
2022-10-02T09:17:39.871Z,2.08
2022-10-02T09:20:43.908Z,2.00
2022-10-02T09:24:01.979Z,2.63
2022-10-02T09:26:55.941Z,2.75
2022-10-02T09:30:12.257Z,2.53
2022-10-02T09:33:24.367Z,2.97
2022-10-02T09:36:34.038Z,2.50
2022-10-02T10:05:05.976Z,1.80
2022-10-02T10:08:06.748Z,2.13
2022-10-02T10:11:05.868Z,2.15
2022-10-02T10:14:06.493Z,1.35
2022-10-02T10:17:09.499Z,1.23
2022-10-02T10:20:04.725Z,1.50
2022-10-02T10:23:16.982Z,1.40
2022-10-02T10:26:23.813Z,1.33
2022-10-02T10:29:40.072Z,1.58
2022-10-02T10:32:42.838Z,1.50
2022-10-02T10:35:39.692Z,1.38
2022-10-02T10:38:34.661Z,1.58
2022-10-02T10:41:44.086Z,1.48
2022-10-02T10:44:48.702Z,1.30
2022-10-02T10:47:46.844Z,2.08
2022-10-02T10:50:41.794Z,1.15
2022-10-02T10:53:41.871Z,1.50
2022-10-02T10:56:37.937Z,1.23
2022-10-02T10:59:36.360Z,1.20
2022-10-02T11:02:36.544Z,1.83
2022-10-02T11:05:31.212Z,1.50
2022-10-02T11:08:35.882Z,1.23
2022-10-02T11:11:15.955Z,1.00
2022-10-02T11:14:06.917Z,1.38
2022-10-02T11:17:18.080Z,1.10
2022-10-02T11:20:09.539Z,1.15
2022-10-02T11:23:15.588Z,1.33
2022-10-02T11:26:16.032Z,1.20
2022-10-02T11:29:10.036Z,1.13
2022-10-02T11:32:06.529Z,1.42
2022-10-02T11:35:07.257Z,0.90
2022-10-02T11:38:04.159Z,1.00
2022-10-02T11:40:57.447Z,1.33
2022-10-02T11:43:53.063Z,1.20
2022-10-02T11:46:54.571Z,1.38
2022-10-02T11:50:02.400Z,1.77
2022-10-02T11:53:08.810Z,1.10
2022-10-02T11:55:55.368Z,1.95
2022-10-02T11:58:45.555Z,1.40
2022-10-02T12:01:25.773Z,1.38
2022-10-02T12:04:07.741Z,1.13
2022-10-02T12:07:06.196Z,1.20
2022-10-02T12:09:50.128Z,1.15
2022-10-02T12:12:38.689Z,2.13
2022-10-02T12:15:23.159Z,1.10
2022-10-02T12:18:08.946Z,1.45
2022-10-02T12:21:24.879Z,1.10
2022-10-02T12:24:15.072Z,1.60
2022-10-02T12:27:10.061Z,1.80
2022-10-02T12:29:56.616Z,1.15
2022-10-02T12:32:41.508Z,1.77
2022-10-02T12:35:32.755Z,1.13
2022-10-02T12:38:19.251Z,1.38
2022-10-02T12:40:59.546Z,0.98
2022-10-02T12:43:55.723Z,1.65
2022-10-02T12:46:56.776Z,1.20
2022-10-02T12:49:41.497Z,1.60
2022-10-02T12:52:43.907Z,1.30
2022-10-02T12:55:49.284Z,1.73
2022-10-02T12:58:31.535Z,1.80
2022-10-02T13:01:34.405Z,1.50
2022-10-02T13:04:32.293Z,1.45
2022-10-02T13:07:32.446Z,1.25
2022-10-02T13:10:08.743Z,1.55
2022-10-02T13:12:56.395Z,1.73
2022-10-02T13:15:37.507Z,1.75
2022-10-02T13:18:25.559Z,1.63
2022-10-02T13:21:07.244Z,1.13
2022-10-02T13:23:48.003Z,1.40
2022-10-02T13:26:30.079Z,2.10
2022-10-02T13:29:17.218Z,1.73
2022-10-02T13:32:01.122Z,1.40
2022-10-02T13:34:47.255Z,1.20
2022-10-02T13:37:32.171Z,1.40
2022-10-02T13:40:21.938Z,2.03
2022-10-02T13:43:22.128Z,1.85
2022-10-02T13:46:03.664Z,1.35
2022-10-02T13:48:46.015Z,1.30
2022-10-02T13:51:24.208Z,1.33
2022-10-02T13:54:23.156Z,1.75
2022-10-02T13:56:59.422Z,1.02
2022-10-02T13:59:41.962Z,1.27
2022-10-02T14:02:39.401Z,1.05
2022-10-02T14:05:20.114Z,1.40
2022-10-02T14:08:09.689Z,1.45
2022-10-02T14:10:55.593Z,1.08
2022-10-02T14:13:51.426Z,1.55
2022-10-02T14:16:35.138Z,1.20
2022-10-02T14:19:23.629Z,1.30
2022-10-02T14:22:12.596Z,1.98
2022-10-02T14:25:08.811Z,1.40
2022-10-02T14:28:17.303Z,1.30
2022-10-02T14:31:04.487Z,1.60
2022-10-02T14:33:51.184Z,1.90
2022-10-02T14:36:28.741Z,2.40
2022-10-02T14:39:14.089Z,1.00
2022-10-02T14:42:04.843Z,1.10
2022-10-02T14:45:01.587Z,1.38
2022-10-02T14:47:47.816Z,2.03
2022-10-02T14:50:33.266Z,1.48
2022-10-02T14:53:37.888Z,0.88
2022-10-02T14:56:43.617Z,1.55
2022-10-02T14:59:34.263Z,1.20
2022-10-02T15:02:24.860Z,1.02
2022-10-02T15:05:05.117Z,1.38
2022-10-02T15:07:39.410Z,1.60
2022-10-02T15:10:19.604Z,1.75
2022-10-02T15:13:01.030Z,1.30
2022-10-02T15:15:40.639Z,1.00
2022-10-02T15:18:33.021Z,1.17
2022-10-02T15:21:18.497Z,1.40
2022-10-02T15:23:52.403Z,1.27
2022-10-02T15:26:35.878Z,1.15
2022-10-02T15:29:17.553Z,0.90
2022-10-02T15:32:17.792Z,1.52
2022-10-02T15:34:59.785Z,0.95
2022-10-02T15:37:38.942Z,0.95
2022-10-02T15:40:21.875Z,1.13
2022-10-02T15:42:58.558Z,1.10
2022-10-02T15:48:43.699Z,1.10
2022-10-02T15:51:29.650Z,0.80
2022-10-02T15:54:14.779Z,1.10
2022-10-02T15:57:20.611Z,0.88
2022-10-02T16:00:13.240Z,1.00
2022-10-02T16:03:02.149Z,0.93
2022-10-02T16:05:54.161Z,0.93
2022-10-02T16:08:53.488Z,0.98
2022-10-02T16:11:46.992Z,0.70
2022-10-02T16:14:24.691Z,1.10
2022-10-02T16:17:28.060Z,1.55
2022-10-02T16:20:21.408Z,1.02
2022-10-02T16:23:14.135Z,0.75
2022-10-02T16:26:07.494Z,0.80
2022-10-02T16:28:54.541Z,0.82
2022-10-02T16:31:56.497Z,1.48
2022-10-02T16:34:46.569Z,0.90
2022-10-02T16:37:29.497Z,1.33
2022-10-02T16:40:03.611Z,1.10
2022-10-02T16:42:58.692Z,1.05
2022-10-02T16:45:44.103Z,0.98
2022-10-02T16:48:19.804Z,0.93
2022-10-02T16:51:11.992Z,0.80
2022-10-02T16:53:47.450Z,1.17
2022-10-02T16:56:24.084Z,0.80
2022-10-02T16:59:04.372Z,1.88
2022-10-02T17:02:05.580Z,1.67
2022-10-02T17:04:54.743Z,1.23
2022-10-02T17:07:35.892Z,1.52
2022-10-02T17:10:19.766Z,0.90
2022-10-02T17:12:56.335Z,0.80
2022-10-02T17:15:38.084Z,0.90
2022-10-02T17:18:24.857Z,1.30
2022-10-02T17:21:03.996Z,1.17
2022-10-02T17:23:44.685Z,0.88
2022-10-02T17:26:28.177Z,1.10
2022-10-02T17:29:05.195Z,1.33
2022-10-02T17:31:50.190Z,0.90
2022-10-02T17:34:23.819Z,0.77
2022-10-02T17:37:08.882Z,0.85
2022-10-02T17:39:56.159Z,0.80
2022-10-02T17:42:41.458Z,0.98
2022-10-02T17:45:29.505Z,1.25
2022-10-02T17:48:26.895Z,1.20
2022-10-02T17:51:47.109Z,0.90
2022-10-02T17:54:42.961Z,0.93
2022-10-02T17:57:29.417Z,1.98
2022-10-02T18:00:16.734Z,1.85
2022-10-02T18:03:23.854Z,2.20
2022-10-02T18:06:06.174Z,1.42
2022-10-02T18:08:58.145Z,1.70
2022-10-02T18:11:45.988Z,1.60
2022-10-02T18:14:28.625Z,2.20
2022-10-02T18:17:19.164Z,1.80
2022-10-02T18:20:01.926Z,1.85
2022-10-02T18:22:55.884Z,2.15
2022-10-02T18:25:51.247Z,2.58
2022-10-02T18:28:49.072Z,3.20
2022-10-02T18:34:43.660Z,2.25
2022-10-02T18:37:43.043Z,2.03
2022-10-02T18:40:28.791Z,2.20
2022-10-02T18:43:24.790Z,2.38
2022-10-02T18:46:05.436Z,1.83
2022-10-02T18:48:59.017Z,2.10
2022-10-02T18:52:00.543Z,2.50
2022-10-02T18:54:45.108Z,3.00
2022-10-02T18:57:38.510Z,3.40
2022-10-02T19:00:19.374Z,3.08
2022-10-02T19:03:07.491Z,2.40
2022-10-02T19:05:41.898Z,2.80
2022-10-02T19:08:24.531Z,2.10
2022-10-02T19:10:55.416Z,1.92
2022-10-02T19:13:31.938Z,1.80
2022-10-02T19:16:21.545Z,1.83
2022-10-02T19:18:52.603Z,2.30
2022-10-02T19:21:23.707Z,2.40
2022-10-02T19:24:07.823Z,2.53
2022-10-02T19:26:47.002Z,1.90
2022-10-02T19:29:30.205Z,2.85
2022-10-02T19:32:04.484Z,2.72
2022-10-02T19:34:36.460Z,2.50
2022-10-02T19:37:10.359Z,2.47
2022-10-02T19:39:46.570Z,2.45
2022-10-02T19:42:24.994Z,2.80
2022-10-02T19:45:04.685Z,2.55
2022-10-02T19:47:43.066Z,2.85
2022-10-02T19:50:24.389Z,2.92
2022-10-02T19:52:57.782Z,2.53
2022-10-02T19:55:32.509Z,2.70
2022-10-02T19:58:09.113Z,2.60
2022-10-02T20:00:43.307Z,2.20
2022-10-02T20:03:20.891Z,3.15
2022-10-02T20:05:54.429Z,2.92
2022-10-02T20:08:29.619Z,2.70
2022-10-02T20:11:07.624Z,3.00
2022-10-02T20:13:43.833Z,2.30
2022-10-02T20:16:35.768Z,2.83
2022-10-02T20:19:08.037Z,2.55
2022-10-02T20:21:43.333Z,2.25
2022-10-02T20:24:18.665Z,2.47
2022-10-02T20:26:51.184Z,2.72
2022-10-02T20:29:28.045Z,3.33
2022-10-02T20:34:40.043Z,2.55
2022-10-02T20:37:15.588Z,2.42
2022-10-02T20:39:55.929Z,2.95
2022-10-02T20:42:35.821Z,2.45
2022-10-02T20:45:07.042Z,2.97
2022-10-02T20:48:17.605Z,2.78
2022-10-02T20:50:58.119Z,2.53
2022-10-02T20:53:58.440Z,2.40
2022-10-02T20:56:49.955Z,2.63
2022-10-02T20:59:45.444Z,2.40
2022-10-02T21:02:29.670Z,2.67
2022-10-02T21:05:27.615Z,2.33
2022-10-02T21:11:24.438Z,2.40
2022-10-02T21:14:17.039Z,3.07
2022-10-02T21:17:35.627Z,2.60
2022-10-02T21:20:52.075Z,2.45
2022-10-02T21:23:58.616Z,2.53
2022-10-02T21:27:04.622Z,2.55
2022-10-02T21:30:16.171Z,2.17
2022-10-02T21:33:01.629Z,2.50
2022-10-02T21:36:00.718Z,2.75
2022-10-02T21:39:03.646Z,2.33
2022-10-02T21:42:14.548Z,2.65
2022-10-02T21:45:34.414Z,2.70
2022-10-02T21:48:43.572Z,2.67
2022-10-02T21:51:46.914Z,3.40
2022-10-02T21:55:00.339Z,2.60
2022-10-02T21:58:02.947Z,2.47
2022-10-02T22:00:34.525Z,2.15
2022-10-02T22:03:40.504Z,2.75
2022-10-02T22:06:25.963Z,3.10
2022-10-02T22:09:23.172Z,2.47
2022-10-02T22:12:12.704Z,2.63
2022-10-02T22:14:53.440Z,2.90
2022-10-02T22:17:34.184Z,2.55
2022-10-02T22:20:29.298Z,3.22
2022-10-02T22:23:16.143Z,1.95
2022-10-02T22:26:00.471Z,2.83
2022-10-02T22:28:42.164Z,2.78
2022-10-02T22:31:49.447Z,3.15
2022-10-02T22:34:33.547Z,3.83
2022-10-02T22:37:28.810Z,11.40
2022-10-02T22:40:08.396Z,9.45
2022-10-02T22:42:44.303Z,9.18
2022-10-02T22:45:23.254Z,4.67
2022-10-02T22:48:03.620Z,3.50
2022-10-02T22:50:41.370Z,3.60
2022-10-02T22:53:18.814Z,3.22
2022-10-02T22:55:53.648Z,3.40
2022-10-02T22:58:32.242Z,3.30
2022-10-02T23:01:11.533Z,3.30
2022-10-02T23:03:50.115Z,3.50
2022-10-02T23:06:30.655Z,3.28
2022-10-02T23:09:10.312Z,3.40
2022-10-02T23:11:46.533Z,3.05
2022-10-02T23:14:23.196Z,2.95
2022-10-02T23:16:59.598Z,2.65
2022-10-02T23:19:42.832Z,3.20
2022-10-02T23:22:25.217Z,3.25
2022-10-02T23:25:03.905Z,3.20
2022-10-02T23:27:48.723Z,2.92
2022-10-02T23:30:23.011Z,3.40
2022-10-02T23:32:59.712Z,3.58
2022-10-02T23:35:41.005Z,3.33
2022-10-02T23:38:23.503Z,4.15
2022-10-02T23:41:31.443Z,3.58
2022-10-02T23:44:13.132Z,3.42
2022-10-02T23:47:11.301Z,3.65
2022-10-02T23:49:47.855Z,3.17
2022-10-02T23:52:51.345Z,3.97
2022-10-02T23:55:40.345Z,3.53
2022-10-02T23:58:34.208Z,3.38
